Time;durP1;ratioP1;P1;durP2;ratioP2;P2;SDS_P1;SDS_P2;PMS_P1;PMS_P2;Temp;Humidity;BMP_temperature;BMP_pressure;BME280_temperature;BME280_humidity;BME280_pressure;Samples;Min_cycle;Max_cycle;Signal;HPM_P1;HPM_P2
2023/01/22 00:02:01;;;;;;;12.55;5.07;;;;;;;;;;4991166;28;20030;-63
2023/01/22 00:04:27;;;;;;;10.95;4.55;;;;;;;;;;4991206;28;20025;-63
2023/01/22 00:06:52;;;;;;;7.40;3.40;;;;;;;;;;4993500;28;20018;-63
2023/01/22 00:09:17;;;;;;;9.45;4.55;;;;;;;;;;4995356;28;20026;-63
2023/01/22 00:11:42;;;;;;;9.53;4.20;;;;;;;;;;4995206;28;20045;-62
2023/01/22 00:14:08;;;;;;;9.88;4.50;;;;;;;;;;4996360;28;20399;-63
2023/01/22 00:16:33;;;;;;;14.77;5.35;;;;;;;;;;4995052;28;20034;-62
2023/01/22 00:18:58;;;;;;;8.53;4.23;;;;;;;;;;4996039;28;20081;-63
2023/01/22 00:21:23;;;;;;;9.50;4.30;;;;;;;;;;4994978;28;20101;-63
2023/01/22 00:23:49;;;;;;;6.53;3.27;;;;;;;;;;4994388;28;20419;-62
2023/01/22 00:26:15;;;;;;;7.18;3.45;;;;;;;;;;4996987;28;20022;-65
2023/01/22 00:28:40;;;;;;;10.65;4.63;;;;;;;;;;4989545;28;20627;-64
2023/01/22 00:31:06;;;;;;;12.00;5.20;;;;;;;;;;4990676;28;20452;-63
2023/01/22 00:33:34;;;;;;;14.40;5.40;;;;;;;;;;4998398;28;20391;-64
2023/01/22 00:36:03;;;;;;;9.55;4.45;;;;;;;;;;4995465;28;20019;-63
2023/01/22 00:38:28;;;;;;;9.90;4.30;;;;;;;;;;4996757;28;20487;-61
2023/01/22 00:40:53;;;;;;;12.07;4.93;;;;;;;;;;5001830;28;20049;-62
2023/01/22 00:43:19;;;;;;;11.02;4.88;;;;;;;;;;5015406;28;20395;-63
2023/01/22 00:45:44;;;;;;;9.23;4.05;;;;;;;;;;5014930;28;20067;-64
2023/01/22 00:48:09;;;;;;;11.07;4.68;;;;;;;;;;4996643;28;20018;-64
2023/01/22 00:50:34;;;;;;;9.23;4.72;;;;;;;;;;4992558;28;20383;-63
2023/01/22 00:52:59;;;;;;;9.05;4.30;;;;;;;;;;4994256;28;20039;-63
2023/01/22 00:55:24;;;;;;;10.00;3.60;;;;;;;;;;4994950;28;20018;-63
2023/01/22 00:57:49;;;;;;;7.88;3.75;;;;;;;;;;4994616;28;20117;-62
2023/01/22 01:00:16;;;;;;;9.95;4.25;;;;;;;;;;4994026;28;20033;-63
2023/01/22 01:05:25;;;;;;;8.77;4.07;;;;;;;;;;4984147;28;20045;-64
2023/01/22 01:07:50;;;;;;;8.25;4.03;;;;;;;;;;4994078;28;20471;-63
2023/01/22 01:10:16;;;;;;;12.47;4.90;;;;;;;;;;4994933;28;20030;-66
2023/01/22 01:12:41;;;;;;;10.40;4.57;;;;;;;;;;4994255;28;20148;-62
2023/01/22 01:15:06;;;;;;;10.10;4.18;;;;;;;;;;4994019;28;20527;-62
2023/01/22 01:17:31;;;;;;;13.35;5.05;;;;;;;;;;4992854;28;20097;-63
2023/01/22 01:19:56;;;;;;;8.90;3.85;;;;;;;;;;4991048;28;20089;-64
2023/01/22 01:22:22;;;;;;;11.65;4.25;;;;;;;;;;4993612;28;20033;-62
2023/01/22 01:24:47;;;;;;;7.53;3.63;;;;;;;;;;4993544;28;20222;-63
2023/01/22 01:27:12;;;;;;;11.53;4.93;;;;;;;;;;4993649;28;20030;-63
2023/01/22 01:29:37;;;;;;;10.52;4.32;;;;;;;;;;4993354;28;20109;-63
2023/01/22 01:32:02;;;;;;;10.10;4.60;;;;;;;;;;4993691;28;20414;-63
2023/01/22 01:34:27;;;;;;;7.90;3.80;;;;;;;;;;4991809;28;20022;-64
2023/01/22 01:36:53;;;;;;;9.27;3.83;;;;;;;;;;4993687;28;20056;-62
2023/01/22 01:39:18;;;;;;;12.52;5.13;;;;;;;;;;4998307;28;20018;-64
2023/01/22 01:41:43;;;;;;;10.90;4.80;;;;;;;;;;4998659;28;20477;-62
2023/01/22 01:44:13;;;;;;;9.40;3.73;;;;;;;;;;4993694;28;20021;-64
2023/01/22 01:46:56;;;;;;;10.85;4.50;;;;;;;;;;4992391;28;20049;-64
2023/01/22 01:49:30;;;;;;;10.23;4.38;;;;;;;;;;4979598;28;20424;-62
2023/01/22 01:51:56;;;;;;;10.63;4.50;;;;;;;;;;4992032;28;20014;-63
2023/01/22 01:54:21;;;;;;;10.80;4.43;;;;;;;;;;4984994;28;20019;-63
2023/01/22 01:56:49;;;;;;;14.17;5.57;;;;;;;;;;4992750;28;20084;-63
2023/01/22 01:59:16;;;;;;;13.95;5.60;;;;;;;;;;4992118;28;20027;-64
2023/01/22 02:01:43;;;;;;;14.43;5.57;;;;;;;;;;4992615;28;20022;-63
2023/01/22 02:04:08;;;;;;;13.20;5.95;;;;;;;;;;4992426;28;20432;-64
2023/01/22 02:06:33;;;;;;;10.55;4.45;;;;;;;;;;4992018;28;20546;-62
2023/01/22 02:08:59;;;;;;;11.65;4.57;;;;;;;;;;4991918;28;20029;-63
2023/01/22 02:11:25;;;;;;;12.30;5.03;;;;;;;;;;4991360;28;20049;-63
2023/01/22 02:13:56;;;;;;;18.33;6.25;;;;;;;;;;4992748;28;20015;-61
2023/01/22 02:16:21;;;;;;;15.15;5.82;;;;;;;;;;4984580;28;20506;-62
2023/01/22 02:18:46;;;;;;;9.85;4.00;;;;;;;;;;4992443;28;20022;-63
2023/01/22 02:21:29;;;;;;;11.40;4.80;;;;;;;;;;4993153;28;20396;-63
2023/01/22 02:23:54;;;;;;;9.80;4.47;;;;;;;;;;4991577;28;20023;-63
2023/01/22 02:26:19;;;;;;;10.40;5.30;;;;;;;;;;4992228;28;20550;-63
2023/01/22 02:28:44;;;;;;;12.77;5.60;;;;;;;;;;4991262;28;20038;-64
2023/01/22 02:31:10;;;;;;;12.35;5.28;;;;;;;;;;4991716;28;20024;-64
2023/01/22 02:33:35;;;;;;;10.68;4.53;;;;;;;;;;4990762;28;20101;-63
2023/01/22 02:36:00;;;;;;;12.57;5.13;;;;;;;;;;4990232;28;20039;-64
2023/01/22 02:38:25;;;;;;;8.60;4.47;;;;;;;;;;4994770;28;20999;-63
2023/01/22 02:40:50;;;;;;;10.98;4.40;;;;;;;;;;4991814;28;20061;-64
2023/01/22 02:43:16;;;;;;;12.88;5.15;;;;;;;;;;4992439;28;20062;-67
2023/01/22 02:45:41;;;;;;;8.48;3.63;;;;;;;;;;4993330;28;20472;-64
2023/01/22 02:48:06;;;;;;;9.00;4.67;;;;;;;;;;4991896;28;20018;-62
2023/01/22 02:50:31;;;;;;;8.00;3.97;;;;;;;;;;4992213;28;20446;-63
2023/01/22 02:52:56;;;;;;;10.02;4.30;;;;;;;;;;4992199;28;20448;-63
2023/01/22 02:55:22;;;;;;;16.95;5.75;;;;;;;;;;4992085;28;20407;-65
2023/01/22 02:57:47;;;;;;;10.63;4.72;;;;;;;;;;4991980;28;20039;-63
2023/01/22 03:00:12;;;;;;;11.07;4.55;;;;;;;;;;4990706;28;20105;-63
2023/01/22 03:02:37;;;;;;;10.13;5.45;;;;;;;;;;4990555;28;20407;-63
2023/01/22 03:05:03;;;;;;;12.65;5.28;;;;;;;;;;4984272;28;20011;-64
2023/01/22 03:07:40;;;;;;;11.40;4.93;;;;;;;;;;4993306;28;20034;-62
2023/01/22 03:10:06;;;;;;;14.02;5.38;;;;;;;;;;4992250;28;20026;-63
2023/01/22 03:23:27;;;;;;;9.10;3.88;;;;;;;;;;4991438;28;20095;-64
2023/01/22 03:25:54;;;;;;;16.10;5.53;;;;;;;;;;4991570;28;20377;-64
2023/01/22 03:28:19;;;;;;;13.77;4.97;;;;;;;;;;4990033;28;20042;-64
2023/01/22 03:30:45;;;;;;;13.05;5.35;;;;;;;;;;4989004;28;20014;-64
2023/01/22 03:33:10;;;;;;;9.03;4.03;;;;;;;;;;4990264;28;20025;-63
2023/01/22 03:35:35;;;;;;;11.83;5.00;;;;;;;;;;4990359;28;20122;-63
2023/01/22 03:38:00;;;;;;;15.43;6.00;;;;;;;;;;4992257;28;20063;-65
2023/01/22 03:40:25;;;;;;;12.70;5.82;;;;;;;;;;4990024;28;20478;-62
2023/01/22 03:42:52;;;;;;;12.20;5.43;;;;;;;;;;4990697;28;20027;-64
2023/01/22 03:45:17;;;;;;;13.73;5.38;;;;;;;;;;4991503;28;20018;-63
2023/01/22 03:47:42;;;;;;;19.40;6.60;;;;;;;;;;4990375;28;20026;-63
2023/01/22 03:50:07;;;;;;;10.93;4.70;;;;;;;;;;4988101;28;20055;-63
2023/01/22 03:52:32;;;;;;;14.75;5.72;;;;;;;;;;4991385;28;20010;-64
2023/01/22 03:54:58;;;;;;;13.07;5.07;;;;;;;;;;4991659;28;20029;-63
2023/01/22 03:57:23;;;;;;;14.45;5.82;;;;;;;;;;4989718;28;20101;-65
2023/01/22 03:59:48;;;;;;;10.45;4.57;;;;;;;;;;4990792;28;20045;-63
2023/01/22 04:02:13;;;;;;;16.47;6.70;;;;;;;;;;4991150;28;20369;-63
2023/01/22 04:04:38;;;;;;;15.60;5.88;;;;;;;;;;4990757;28;20059;-63
2023/01/22 04:07:03;;;;;;;17.00;6.07;;;;;;;;;;4990118;28;20022;-64
2023/01/22 04:09:28;;;;;;;10.77;5.03;;;;;;;;;;4993899;28;20022;-63
2023/01/22 04:11:54;;;;;;;13.25;5.47;;;;;;;;;;4991924;28;20045;-63
2023/01/22 04:14:19;;;;;;;14.40;5.43;;;;;;;;;;4990160;28;20432;-63
2023/01/22 04:16:44;;;;;;;16.90;6.15;;;;;;;;;;4991032;28;20038;-66
2023/01/22 04:19:09;;;;;;;19.20;6.78;;;;;;;;;;4990571;28;20026;-64
2023/01/22 04:21:34;;;;;;;18.58;6.47;;;;;;;;;;4989863;28;20499;-64
2023/01/22 04:23:59;;;;;;;15.53;6.10;;;;;;;;;;4989652;28;20108;-64
2023/01/22 04:26:24;;;;;;;15.20;5.55;;;;;;;;;;4991003;28;20019;-63
2023/01/22 04:28:50;;;;;;;12.27;5.05;;;;;;;;;;4990392;28;20039;-64
2023/01/22 04:31:15;;;;;;;15.10;5.90;;;;;;;;;;4990201;28;20038;-64
2023/01/22 04:33:40;;;;;;;14.88;6.00;;;;;;;;;;4988911;28;20023;-64
2023/01/22 04:36:05;;;;;;;14.30;5.70;;;;;;;;;;5003496;28;20025;-63
2023/01/22 04:38:30;;;;;;;13.02;5.90;;;;;;;;;;4991745;28;20030;-64
2023/01/22 04:40:55;;;;;;;20.00;6.93;;;;;;;;;;4988766;28;20018;-63
2023/01/22 04:43:20;;;;;;;17.47;6.63;;;;;;;;;;4990956;28;20081;-64
2023/01/22 04:45:47;;;;;;;18.05;6.72;;;;;;;;;;4991431;28;20046;-63
2023/01/22 04:48:13;;;;;;;;;;;;;;;;;;4992293;28;20022;-65
2023/01/22 04:50:38;;;;;;;16.90;5.95;;;;;;;;;;4990056;28;19928;-64
2023/01/22 04:53:03;;;;;;;16.83;6.15;;;;;;;;;;4992938;28;20026;-65
2023/01/22 04:55:29;;;;;;;21.83;6.40;;;;;;;;;;4993345;28;20674;-64
2023/01/22 04:57:58;;;;;;;21.17;6.40;;;;;;;;;;4994388;28;20038;-64
2023/01/22 05:00:23;;;;;;;20.50;7.13;;;;;;;;;;4986818;28;20030;-68
2023/01/22 05:02:48;;;;;;;24.88;8.13;;;;;;;;;;4992393;28;20026;-65
2023/01/22 05:05:13;;;;;;;23.63;6.83;;;;;;;;;;4994230;28;20025;-65
2023/01/22 05:07:39;;;;;;;22.15;6.93;;;;;;;;;;4994140;28;20022;-64
2023/01/22 05:10:04;;;;;;;17.27;6.80;;;;;;;;;;4992396;28;20029;-65
2023/01/22 05:12:29;;;;;;;21.27;6.70;;;;;;;;;;4993952;28;20395;-64
2023/01/22 05:14:54;;;;;;;21.23;7.05;;;;;;;;;;4993846;28;20038;-63
2023/01/22 05:17:20;;;;;;;19.37;6.57;;;;;;;;;;4993798;28;20396;-65
2023/01/22 05:19:45;;;;;;;15.32;6.13;;;;;;;;;;4990249;28;20018;-63
2023/01/22 05:22:10;;;;;;;19.30;6.55;;;;;;;;;;4993860;28;20023;-64
2023/01/22 05:24:35;;;;;;;16.48;6.38;;;;;;;;;;4993524;28;20030;-65
2023/01/22 05:27:00;;;;;;;15.40;6.13;;;;;;;;;;4993888;28;20033;-66
2023/01/22 05:29:26;;;;;;;15.05;6.07;;;;;;;;;;4993414;28;20057;-66
2023/01/22 05:31:54;;;;;;;14.02;5.70;;;;;;;;;;4993371;28;20030;-66
2023/01/22 05:34:20;;;;;;;17.95;6.80;;;;;;;;;;5002348;28;20021;-63
2023/01/22 05:36:45;;;;;;;16.40;6.70;;;;;;;;;;5012879;28;20022;-64
2023/01/22 05:39:10;;;;;;;17.03;6.43;;;;;;;;;;4993552;28;20492;-64
2023/01/22 05:41:35;;;;;;;12.93;5.97;;;;;;;;;;4992268;28;20591;-65
2023/01/22 05:44:01;;;;;;;14.97;6.03;;;;;;;;;;4993182;28;20395;-63
2023/01/22 05:46:26;;;;;;;16.70;6.18;;;;;;;;;;4993165;28;20538;-64
2023/01/22 05:48:51;;;;;;;17.40;6.93;;;;;;;;;;4990077;28;20033;-64
2023/01/22 05:51:16;;;;;;;17.88;6.85;;;;;;;;;;4992983;28;20030;-63
2023/01/22 05:53:41;;;;;;;21.27;7.20;;;;;;;;;;4993400;28;20027;-63
2023/01/22 05:56:07;;;;;;;18.27;6.80;;;;;;;;;;4994064;28;20015;-64
2023/01/22 05:58:32;;;;;;;16.77;6.63;;;;;;;;;;4992344;28;20476;-64
2023/01/22 06:00:57;;;;;;;18.47;7.43;;;;;;;;;;4992097;28;20206;-63
2023/01/22 06:03:23;;;;;;;16.10;6.55;;;;;;;;;;4991539;28;20034;-66
2023/01/22 06:05:58;;;;;;;14.80;6.20;;;;;;;;;;4994326;28;20022;-65
2023/01/22 06:08:23;;;;;;;16.00;5.93;;;;;;;;;;4986119;28;20022;-67
2023/01/22 06:10:48;;;;;;;17.13;7.07;;;;;;;;;;4991479;28;20502;-65
2023/01/22 06:13:13;;;;;;;14.93;5.93;;;;;;;;;;4986445;28;20061;-64
2023/01/22 06:15:38;;;;;;;13.88;5.68;;;;;;;;;;4986725;28;20033;-63
2023/01/22 06:18:04;;;;;;;20.55;6.72;;;;;;;;;;4991862;28;20113;-65
2023/01/22 06:20:29;;;;;;;17.50;6.70;;;;;;;;;;4992146;28;20018;-63
2023/01/22 06:22:54;;;;;;;13.73;5.93;;;;;;;;;;4992571;28;20022;-66
2023/01/22 06:25:20;;;;;;;15.35;5.85;;;;;;;;;;4992397;28;20100;-64
2023/01/22 06:27:45;;;;;;;21.83;7.30;;;;;;;;;;4989240;28;20069;-65
2023/01/22 06:30:10;;;;;;;18.80;6.90;;;;;;;;;;4989257;28;20030;-64
2023/01/22 06:32:35;;;;;;;15.53;6.20;;;;;;;;;;4997425;28;20026;-66
2023/01/22 06:35:00;;;;;;;16.73;6.53;;;;;;;;;;5002482;28;20022;-63
2023/01/22 06:37:25;;;;;;;20.02;6.68;;;;;;;;;;4982895;28;20117;-65
2023/01/22 06:39:50;;;;;;;13.18;5.95;;;;;;;;;;4991374;28;20018;-64
2023/01/22 06:42:16;;;;;;;14.07;5.43;;;;;;;;;;4987233;28;20030;-65
2023/01/22 06:44:41;;;;;;;14.65;6.07;;;;;;;;;;4986925;28;20585;-64
2023/01/22 06:47:06;;;;;;;18.60;6.63;;;;;;;;;;4985313;28;20023;-63
2023/01/22 06:49:31;;;;;;;13.98;5.97;;;;;;;;;;4991754;28;20018;-63
2023/01/22 06:51:56;;;;;;;14.88;5.57;;;;;;;;;;4991255;28;20491;-64
2023/01/22 06:54:21;;;;;;;16.63;5.97;;;;;;;;;;4990150;28;20049;-64
2023/01/22 06:56:46;;;;;;;18.67;6.65;;;;;;;;;;4990771;28;20022;-64
2023/01/22 06:59:12;;;;;;;14.02;5.70;;;;;;;;;;4991057;28;20030;-64
2023/01/22 07:01:37;;;;;;;19.45;6.38;;;;;;;;;;4990640;28;20053;-64
2023/01/22 07:04:02;;;;;;;15.45;5.95;;;;;;;;;;4995134;28;20057;-66
2023/01/22 07:06:27;;;;;;;17.38;6.65;;;;;;;;;;5011356;28;20029;-65
2023/01/22 07:08:52;;;;;;;18.98;7.03;;;;;;;;;;5011584;28;20049;-65
2023/01/22 07:11:18;;;;;;;15.25;5.72;;;;;;;;;;4986812;28;20027;-63
2023/01/22 07:13:43;;;;;;;17.73;6.27;;;;;;;;;;4981275;28;20045;-67
2023/01/22 07:16:08;;;;;;;20.77;7.13;;;;;;;;;;4991400;28;20025;-63
2023/01/22 07:18:33;;;;;;;16.60;6.97;;;;;;;;;;4996942;28;20100;-65
2023/01/22 07:20:59;;;;;;;22.63;7.53;;;;;;;;;;5001019;28;20022;-64
2023/01/22 07:23:24;;;;;;;17.10;6.55;;;;;;;;;;4988842;28;21047;-63
2023/01/22 07:25:49;;;;;;;12.07;5.50;;;;;;;;;;4990771;28;20081;-63
2023/01/22 07:28:15;;;;;;;23.97;7.57;;;;;;;;;;4990794;28;20058;-56
2023/01/22 07:30:41;;;;;;;17.17;6.32;;;;;;;;;;4987346;28;20021;-66
2023/01/22 07:33:06;;;;;;;16.67;6.35;;;;;;;;;;4988311;28;20093;-64
2023/01/22 07:35:31;;;;;;;14.50;6.10;;;;;;;;;;4988168;28;20431;-63
2023/01/22 07:37:57;;;;;;;17.47;7.37;;;;;;;;;;4987945;28;20041;-66
2023/01/22 07:40:25;;;;;;;21.25;7.40;;;;;;;;;;4986384;28;20302;-64
2023/01/22 07:42:51;;;;;;;17.08;6.70;;;;;;;;;;4987506;28;20558;-65
2023/01/22 07:45:19;;;;;;;19.77;7.10;;;;;;;;;;4987554;28;20109;-63
2023/01/22 07:47:51;;;;;;;21.88;7.93;;;;;;;;;;4987738;28;20031;-63
2023/01/22 07:50:16;;;;;;;17.50;6.63;;;;;;;;;;4985958;28;20049;-63
2023/01/22 07:52:41;;;;;;;18.20;7.27;;;;;;;;;;4986240;28;20479;-64
2023/01/22 07:55:07;;;;;;;14.80;6.50;;;;;;;;;;4986678;28;20081;-64
2023/01/22 07:57:32;;;;;;;16.88;6.47;;;;;;;;;;4985891;28;20034;-65
2023/01/22 07:59:57;;;;;;;15.55;6.60;;;;;;;;;;4985437;28;20030;-64
2023/01/22 08:02:22;;;;;;;17.27;6.93;;;;;;;;;;4987612;28;20397;-65
2023/01/22 08:04:47;;;;;;;12.07;5.45;;;;;;;;;;4988235;28;20027;-63
2023/01/22 08:07:18;;;;;;;13.80;5.40;;;;;;;;;;4987800;28;20030;-65
2023/01/22 08:09:43;;;;;;;12.93;5.90;;;;;;;;;;4985527;28;20053;-64
2023/01/22 08:12:08;;;;;;;17.83;6.63;;;;;;;;;;4986007;28;20046;-65
2023/01/22 08:14:34;;;;;;;19.43;6.80;;;;;;;;;;4984939;28;20077;-66
2023/01/22 08:16:59;;;;;;;22.23;7.38;;;;;;;;;;4987111;28;20400;-63
2023/01/22 08:19:24;;;;;;;14.27;5.68;;;;;;;;;;4987241;28;20048;-63
2023/01/22 08:21:49;;;;;;;11.13;4.80;;;;;;;;;;4985528;28;20022;-63
2023/01/22 08:24:14;;;;;;;12.10;5.22;;;;;;;;;;4985656;28;20069;-63
2023/01/22 08:26:39;;;;;;;13.20;5.00;;;;;;;;;;4991144;28;20034;-69
2023/01/22 08:29:05;;;;;;;9.60;4.05;;;;;;;;;;4992509;28;20014;-64
2023/01/22 08:31:30;;;;;;;13.95;5.50;;;;;;;;;;4994520;28;20030;-64
2023/01/22 08:33:58;;;;;;;12.47;4.77;;;;;;;;;;4991877;28;20022;-65
2023/01/22 08:36:24;;;;;;;13.65;5.53;;;;;;;;;;4987204;28;20026;-64
2023/01/22 08:38:49;;;;;;;12.30;4.93;;;;;;;;;;4994929;28;20034;-63
2023/01/22 08:41:14;;;;;;;13.85;5.30;;;;;;;;;;4992923;28;20026;-63
2023/01/22 08:43:39;;;;;;;14.35;5.28;;;;;;;;;;4985925;28;20038;-68
2023/01/22 08:46:05;;;;;;;20.85;7.35;;;;;;;;;;4995165;28;20030;-64
2023/01/22 08:48:30;;;;;;;17.27;6.73;;;;;;;;;;4993549;28;20467;-66
2023/01/22 08:50:58;;;;;;;16.83;6.55;;;;;;;;;;4993424;28;20053;-65
2023/01/22 08:53:23;;;;;;;17.13;6.90;;;;;;;;;;4993395;28;20026;-62
2023/01/22 08:55:48;;;;;;;14.13;5.70;;;;;;;;;;4994351;28;20117;-63
2023/01/22 08:58:14;;;;;;;17.90;7.22;;;;;;;;;;4993637;28;20041;-64
2023/01/22 09:00:39;;;;;;;13.10;5.55;;;;;;;;;;4993654;28;20018;-66
2023/01/22 09:03:04;;;;;;;15.05;6.80;;;;;;;;;;4992191;28;20467;-64
2023/01/22 09:05:29;;;;;;;22.35;7.88;;;;;;;;;;4993335;28;20053;-66
2023/01/22 09:07:54;;;;;;;17.77;6.90;;;;;;;;;;4992741;28;20038;-63
2023/01/22 09:10:19;;;;;;;17.33;6.40;;;;;;;;;;4993222;28;20423;-69
2023/01/22 09:12:44;;;;;;;20.77;8.18;;;;;;;;;;4993331;28;20054;-63
2023/01/22 09:15:10;;;;;;;15.70;6.80;;;;;;;;;;4992978;28;20049;-63
2023/01/22 09:17:35;;;;;;;21.43;7.83;;;;;;;;;;4993786;28;20372;-64
2023/01/22 09:20:00;;;;;;;18.33;7.60;;;;;;;;;;4993241;28;20073;-63
2023/01/22 09:22:25;;;;;;;17.40;6.28;;;;;;;;;;4993690;28;20018;-64
2023/01/22 09:24:50;;;;;;;22.00;7.50;;;;;;;;;;4993333;28;20030;-64
2023/01/22 09:27:15;;;;;;;20.67;7.95;;;;;;;;;;4993477;28;20027;-65
2023/01/22 09:29:41;;;;;;;25.30;8.83;;;;;;;;;;4994035;28;20041;-64
2023/01/22 09:32:06;;;;;;;22.70;8.38;;;;;;;;;;4992799;28;20388;-64
2023/01/22 09:34:32;;;;;;;21.20;8.05;;;;;;;;;;4993650;28;20117;-65
2023/01/22 09:36:59;;;;;;;18.73;7.70;;;;;;;;;;4994228;28;20030;-64
2023/01/22 09:39:24;;;;;;;19.92;7.95;;;;;;;;;;4992019;28;20161;-65
2023/01/22 09:41:51;;;;;;;15.38;6.35;;;;;;;;;;4995157;28;20479;-64
2023/01/22 09:44:16;;;;;;;20.73;7.47;;;;;;;;;;4993705;28;20019;-65
2023/01/22 09:46:46;;;;;;;18.80;7.72;;;;;;;;;;4992938;28;20032;-63
2023/01/22 09:49:16;;;;;;;22.77;8.77;;;;;;;;;;4995216;28;20022;-64
2023/01/22 09:51:43;;;;;;;21.70;8.20;;;;;;;;;;4993565;28;20022;-65
2023/01/22 09:54:11;;;;;;;19.05;7.55;;;;;;;;;;4995831;28;20069;-65
2023/01/22 09:56:44;;;;;;;18.48;7.53;;;;;;;;;;4999356;28;20030;-64
2023/01/22 09:59:15;;;;;;;16.83;6.90;;;;;;;;;;4996637;28;20026;-63
2023/01/22 10:01:41;;;;;;;21.27;8.32;;;;;;;;;;4992614;28;20029;-64
2023/01/22 10:04:23;;;;;;;22.33;8.10;;;;;;;;;;4983079;28;20023;-65
2023/01/22 10:06:49;;;;;;;20.02;8.13;;;;;;;;;;4992982;28;20030;-65
2023/01/22 10:09:17;;;;;;;20.08;8.02;;;;;;;;;;4993033;28;20019;-64
2023/01/22 10:11:44;;;;;;;20.40;8.07;;;;;;;;;;4992545;28;20023;-63
2023/01/22 10:14:13;;;;;;;23.38;8.55;;;;;;;;;;4992323;28;20029;-64
2023/01/22 10:16:38;;;;;;;19.67;8.68;;;;;;;;;;4992197;28;20379;-64
2023/01/22 10:19:03;;;;;;;19.30;8.18;;;;;;;;;;4992516;28;20025;-66
2023/01/22 10:21:30;;;;;;;24.57;9.07;;;;;;;;;;4990978;28;20090;-64
2023/01/22 10:23:56;;;;;;;18.30;7.68;;;;;;;;;;4992015;28;20125;-63
2023/01/22 10:26:54;;;;;;;18.92;7.90;;;;;;;;;;4987089;28;20624;-63
2023/01/22 10:29:19;;;;;;;21.92;9.05;;;;;;;;;;4944148;28;20122;-66
2023/01/22 10:31:45;;;;;;;21.10;9.27;;;;;;;;;;4993257;28;20424;-67
2023/01/22 10:34:15;;;;;;;17.27;7.68;;;;;;;;;;4993824;28;20015;-66
2023/01/22 10:36:46;;;;;;;18.88;7.75;;;;;;;;;;4989579;28;20025;-63
2023/01/22 10:39:13;;;;;;;21.83;8.02;;;;;;;;;;4982398;28;20027;-63
2023/01/22 10:41:39;;;;;;;20.42;8.73;;;;;;;;;;4972425;28;20022;-64
2023/01/22 10:44:17;;;;;;;21.02;9.18;;;;;;;;;;4976885;28;20030;-64
2023/01/22 10:46:45;;;;;;;20.27;8.35;;;;;;;;;;4990610;28;20034;-64
2023/01/22 10:49:13;;;;;;;21.13;8.32;;;;;;;;;;4984585;28;20038;-65
2023/01/22 10:51:39;;;;;;;18.67;8.75;;;;;;;;;;4990323;28;20030;-64
2023/01/22 10:54:17;;;;;;;24.80;9.82;;;;;;;;;;4991834;28;20102;-67
2023/01/22 10:56:42;;;;;;;24.05;8.52;;;;;;;;;;4992318;28;20022;-63
2023/01/22 10:59:16;;;;;;;21.33;8.63;;;;;;;;;;4990776;28;20026;-64
2023/01/22 11:01:42;;;;;;;19.52;8.35;;;;;;;;;;4991558;28;20101;-64
2023/01/22 11:04:11;;;;;;;20.30;7.87;;;;;;;;;;4992134;28;20096;-64
2023/01/22 11:06:39;;;;;;;18.70;7.75;;;;;;;;;;4991698;28;20014;-63
2023/01/22 11:09:10;;;;;;;21.27;8.70;;;;;;;;;;4991960;28;20018;-64
2023/01/22 11:11:39;;;;;;;23.38;9.05;;;;;;;;;;4991943;28;20022;-64
2023/01/22 11:14:13;;;;;;;21.27;9.25;;;;;;;;;;4992983;28;20030;-65
2023/01/22 11:16:39;;;;;;;17.40;7.40;;;;;;;;;;4994982;28;20117;-63
2023/01/22 11:19:10;;;;;;;17.58;7.60;;;;;;;;;;4992861;28;20542;-65
2023/01/22 11:21:41;;;;;;;21.58;9.10;;;;;;;;;;4991022;28;20137;-66
2023/01/22 11:24:15;;;;;;;24.92;9.65;;;;;;;;;;4990233;28;20098;-63
2023/01/22 11:26:43;;;;;;;20.63;8.48;;;;;;;;;;4991741;28;20643;-64
2023/01/22 11:29:29;;;;;;;24.00;9.60;;;;;;;;;;4990488;28;20117;-64
2023/01/22 11:32:00;;;;;;;24.45;9.73;;;;;;;;;;4991479;28;20036;-65
2023/01/22 11:34:34;;;;;;;22.77;9.40;;;;;;;;;;4984197;28;20070;-62
2023/01/22 11:37:02;;;;;;;20.48;8.07;;;;;;;;;;4991129;28;20029;-62
2023/01/22 11:39:46;;;;;;;17.92;7.90;;;;;;;;;;4992171;28;20068;-64
2023/01/22 11:42:20;;;;;;;17.75;7.78;;;;;;;;;;4990998;28;20030;-64
2023/01/22 11:45:01;;;;;;;14.82;6.22;;;;;;;;;;4991327;28;20464;-63
2023/01/22 11:47:32;;;;;;;16.45;7.57;;;;;;;;;;4984528;28;20029;-64
2023/01/22 11:50:03;;;;;;;17.33;7.63;;;;;;;;;;4992035;28;20030;-67
2023/01/22 11:52:38;;;;;;;17.08;7.78;;;;;;;;;;4992569;28;20456;-64
2023/01/22 11:55:04;;;;;;;20.50;8.30;;;;;;;;;;4991358;28;20443;-64
2023/01/22 11:57:31;;;;;;;17.48;7.15;;;;;;;;;;4989788;28;20472;-64
2023/01/22 12:00:02;;;;;;;17.80;7.13;;;;;;;;;;4990478;28;20022;-62
2023/01/22 12:02:30;;;;;;;17.60;7.85;;;;;;;;;;4994002;28;20540;-66
2023/01/22 12:04:58;;;;;;;18.70;7.78;;;;;;;;;;4995434;28;20097;-63
2023/01/22 12:07:34;;;;;;;19.42;7.93;;;;;;;;;;4994171;28;20023;-64
2023/01/22 12:10:18;;;;;;;18.67;8.45;;;;;;;;;;4989564;28;20110;-64
2023/01/22 12:12:52;;;;;;;18.50;8.52;;;;;;;;;;4975739;28;20019;-66
2023/01/22 12:15:28;;;;;;;19.52;8.68;;;;;;;;;;4975589;28;20057;-66
2023/01/22 12:18:03;;;;;;;20.67;9.00;;;;;;;;;;4976049;28;20424;-66
2023/01/22 12:20:38;;;;;;;21.13;9.27;;;;;;;;;;4968479;28;20027;-65
2023/01/22 12:23:05;;;;;;;21.63;9.07;;;;;;;;;;4976814;28;20034;-63
2023/01/22 12:25:30;;;;;;;;;;;;;;;;;;5000154;28;20499;-67
2023/01/22 12:28:07;;;;;;;25.73;10.53;;;;;;;;;;4980457;28;19914;-65
2023/01/22 12:30:41;;;;;;;21.52;8.80;;;;;;;;;;4969530;28;20031;-63
2023/01/22 12:33:10;;;;;;;21.92;9.77;;;;;;;;;;4976247;28;20040;-63
2023/01/22 12:35:35;;;;;;;25.23;10.02;;;;;;;;;;4976628;28;20019;-66
2023/01/22 12:38:14;;;;;;;24.15;9.93;;;;;;;;;;4977160;28;20035;-63
2023/01/22 12:40:47;;;;;;;22.63;10.20;;;;;;;;;;4991868;28;20060;-67
2023/01/22 12:43:12;;;;;;;24.33;9.75;;;;;;;;;;4995440;28;20026;-63
2023/01/22 12:45:41;;;;;;;22.03;9.63;;;;;;;;;;4992679;28;20022;-65
2023/01/22 12:48:14;;;;;;;19.40;8.75;;;;;;;;;;4996303;28;20113;-66
2023/01/22 12:50:50;;;;;;;23.30;9.63;;;;;;;;;;4993898;28;20030;-68
2023/01/22 12:53:29;;;;;;;22.20;9.25;;;;;;;;;;4994922;28;20029;-62
2023/01/22 12:55:58;;;;;;;18.85;8.48;;;;;;;;;;4991192;28;20447;-63
2023/01/22 12:58:25;;;;;;;21.40;9.10;;;;;;;;;;4985848;28;20037;-64
2023/01/22 13:00:59;;;;;;;22.23;10.13;;;;;;;;;;4992581;28;20379;-64
2023/01/22 13:03:27;;;;;;;20.30;9.23;;;;;;;;;;4990693;28;20030;-64
2023/01/22 13:05:52;;;;;;;20.90;8.43;;;;;;;;;;4994685;28;20025;-64
2023/01/22 13:08:18;;;;;;;19.23;9.07;;;;;;;;;;4993303;28;20587;-66
2023/01/22 13:10:56;;;;;;;21.13;9.15;;;;;;;;;;4993677;28;20098;-64
2023/01/22 13:13:22;;;;;;;24.88;10.32;;;;;;;;;;4984513;28;20041;-64
2023/01/22 13:15:51;;;;;;;18.20;8.17;;;;;;;;;;4990658;28;20090;-63
2023/01/22 13:18:22;;;;;;;23.42;9.48;;;;;;;;;;4988836;28;20038;-64
2023/01/22 13:21:07;;;;;;;20.58;9.00;;;;;;;;;;4990733;28;20026;-63
2023/01/22 13:23:34;;;;;;;18.73;8.02;;;;;;;;;;4990086;28;20393;-65
2023/01/22 13:25:59;;;;;;;21.20;8.68;;;;;;;;;;4993668;28;20033;-63
2023/01/22 13:28:25;;;;;;;18.60;7.93;;;;;;;;;;4990133;28;20034;-62
2023/01/22 13:30:57;;;;;;;20.38;9.02;;;;;;;;;;4991698;28;20379;-64
2023/01/22 13:33:22;;;;;;;18.63;8.68;;;;;;;;;;4989486;28;20390;-67
2023/01/22 13:35:47;;;;;;;19.73;7.90;;;;;;;;;;4989487;28;20102;-64
2023/01/22 13:38:15;;;;;;;19.03;7.87;;;;;;;;;;4988562;28;20045;-66
2023/01/22 13:40:41;;;;;;;16.05;7.70;;;;;;;;;;4988485;28;20024;-65
2023/01/22 13:43:06;;;;;;;18.75;8.80;;;;;;;;;;4988957;28;20429;-63
2023/01/22 13:45:32;;;;;;;18.43;7.77;;;;;;;;;;4986810;28;20022;-64
2023/01/22 13:47:59;;;;;;;18.42;8.23;;;;;;;;;;4989772;28;20030;-63
2023/01/22 13:50:26;;;;;;;19.08;7.88;;;;;;;;;;4988429;28;20069;-65
2023/01/22 13:52:51;;;;;;;18.23;8.00;;;;;;;;;;4981969;28;20033;-64
2023/01/22 13:55:20;;;;;;;21.87;8.57;;;;;;;;;;4989041;28;20031;-64
2023/01/22 13:57:46;;;;;;;21.63;8.95;;;;;;;;;;4990832;28;20113;-64
2023/01/22 14:00:21;;;;;;;18.20;7.95;;;;;;;;;;4989045;28;20027;-63
2023/01/22 14:02:46;;;;;;;20.70;9.00;;;;;;;;;;4989621;28;20027;-65
2023/01/22 14:05:19;;;;;;;19.73;8.07;;;;;;;;;;4989919;28;20021;-66
2023/01/22 14:07:44;;;;;;;18.85;8.10;;;;;;;;;;4989215;28;20042;-64
2023/01/22 14:10:21;;;;;;;19.57;7.90;;;;;;;;;;4986849;28;20113;-63
2023/01/22 14:12:57;;;;;;;19.88;8.63;;;;;;;;;;4989558;28;20037;-64
2023/01/22 14:15:22;;;;;;;18.67;8.18;;;;;;;;;;4980723;28;20027;-67
2023/01/22 14:17:48;;;;;;;19.00;7.60;;;;;;;;;;4991582;28;20117;-67
2023/01/22 14:20:13;;;;;;;17.15;7.85;;;;;;;;;;4989271;28;20026;-65
2023/01/22 14:22:39;;;;;;;18.02;7.88;;;;;;;;;;4990212;28;20056;-63
2023/01/22 14:25:05;;;;;;;19.97;7.97;;;;;;;;;;4985992;28;20014;-64
2023/01/22 14:27:39;;;;;;;15.27;7.15;;;;;;;;;;4989036;28;20034;-67
2023/01/22 14:30:05;;;;;;;17.10;7.50;;;;;;;;;;4987601;28;20430;-67
2023/01/22 14:32:30;;;;;;;18.38;8.50;;;;;;;;;;4988826;28;20022;-67
2023/01/22 14:34:55;;;;;;;18.13;7.95;;;;;;;;;;4986171;28;20053;-64
2023/01/22 14:37:21;;;;;;;19.77;8.27;;;;;;;;;;4987312;28;20046;-66
2023/01/22 14:39:46;;;;;;;15.93;7.25;;;;;;;;;;4986770;28;20486;-66
2023/01/22 14:42:11;;;;;;;16.55;6.97;;;;;;;;;;4987967;28;20026;-65
2023/01/22 14:44:36;;;;;;;20.15;9.18;;;;;;;;;;4986224;28;20031;-65